Allwood, New Jersey
Current Conditions -  °F | °C
As of 8:59 AM on Wednesday 26 Nov 2014 (Local Time) from KTEB Reporting Station
Moderate Rain Moderate Rain  
Wind Chill: 31°   Ceiling: 1100
Heat Index: 37°   Visibility: 2.5mi
Dew Point: 34°   Wind: 8mph
Humidity: 87%   Direction: 40°NE
Pressure: 30.12"   Gusts: NA
Location:  40.8469°N, 74.1593°W
Report Text: KTEB 261359Z 04007KT 2 1/2SM RA BR BKN011 BKN019 OVC025 03/01 A3012 RMK AO2 P0001
Loading
Personal Weather Stations






























Interactive Weather Map New forecast layout! Learn more

10-Day Weather Forecast

Advertisements
Track Severe Weather on mobile